sensor_id;sensor_type;location;lat;lon;timestamp;P1;durP1;ratioP1;P2;durP2;ratioP2
79330;SDS011;68797;49.782;19.054;2023-05-07T00:00:47;30.80;;;17.88;;
79330;SDS011;68797;49.782;19.054;2023-05-07T00:03:20;30.15;;;16.42;;
79330;SDS011;68797;49.782;19.054;2023-05-07T00:05:47;28.20;;;16.70;;
79330;SDS011;68797;49.782;19.054;2023-05-07T00:08:13;28.38;;;15.70;;
79330;SDS011;68797;49.782;19.054;2023-05-07T00:10:40;27.00;;;15.57;;
79330;SDS011;68797;49.782;19.054;2023-05-07T00:13:06;32.53;;;17.33;;
79330;SDS011;68797;49.782;19.054;2023-05-07T00:15:32;27.25;;;15.88;;
79330;SDS011;68797;49.782;19.054;2023-05-07T00:17:58;29.55;;;14.68;;
79330;SDS011;68797;49.782;19.054;2023-05-07T00:20:25;27.70;;;14.23;;
79330;SDS011;68797;49.782;19.054;2023-05-07T00:22:51;22.25;;;12.32;;
79330;SDS011;68797;49.782;19.054;2023-05-07T00:25:18;23.60;;;12.32;;
79330;SDS011;68797;49.782;19.054;2023-05-07T00:27:45;22.05;;;12.73;;
79330;SDS011;68797;49.782;19.054;2023-05-07T00:30:11;25.70;;;12.60;;
79330;SDS011;68797;49.782;19.054;2023-05-07T00:32:38;21.92;;;12.18;;
79330;SDS011;68797;49.782;19.054;2023-05-07T00:35:05;20.27;;;11.90;;
79330;SDS011;68797;49.782;19.054;2023-05-07T00:37:32;20.02;;;11.65;;
79330;SDS011;68797;49.782;19.054;2023-05-07T00:39:58;19.48;;;11.38;;
79330;SDS011;68797;49.782;19.054;2023-05-07T00:42:24;21.13;;;11.60;;
79330;SDS011;68797;49.782;19.054;2023-05-07T00:44:51;16.80;;;10.50;;
79330;SDS011;68797;49.782;19.054;2023-05-07T00:47:17;22.05;;;11.40;;
79330;SDS011;68797;49.782;19.054;2023-05-07T00:49:44;17.92;;;11.77;;
79330;SDS011;68797;49.782;19.054;2023-05-07T00:52:11;19.88;;;10.82;;
79330;SDS011;68797;49.782;19.054;2023-05-07T00:54:40;18.95;;;11.23;;
79330;SDS011;68797;49.782;19.054;2023-05-07T00:57:07;16.88;;;10.25;;
79330;SDS011;68797;49.782;19.054;2023-05-07T00:59:35;16.42;;;9.88;;
79330;SDS011;68797;49.782;19.054;2023-05-07T01:02:02;15.70;;;10.77;;
79330;SDS011;68797;49.782;19.054;2023-05-07T01:04:28;16.60;;;11.98;;
79330;SDS011;68797;49.782;19.054;2023-05-07T01:06:55;17.15;;;9.82;;
79330;SDS011;68797;49.782;19.054;2023-05-07T01:09:22;15.07;;;9.65;;
79330;SDS011;68797;49.782;19.054;2023-05-07T01:11:50;14.77;;;9.75;;
79330;SDS011;68797;49.782;19.054;2023-05-07T01:14:17;15.23;;;8.85;;
79330;SDS011;68797;49.782;19.054;2023-05-07T01:16:44;14.07;;;9.48;;
79330;SDS011;68797;49.782;19.054;2023-05-07T01:19:12;13.85;;;9.48;;
79330;SDS011;68797;49.782;19.054;2023-05-07T01:21:47;16.52;;;9.25;;
79330;SDS011;68797;49.782;19.054;2023-05-07T01:24:17;14.35;;;9.50;;
79330;SDS011;68797;49.782;19.054;2023-05-07T01:26:44;13.85;;;9.20;;
79330;SDS011;68797;49.782;19.054;2023-05-07T01:29:13;15.65;;;8.75;;
79330;SDS011;68797;49.782;19.054;2023-05-07T01:31:40;15.90;;;9.55;;
79330;SDS011;68797;49.782;19.054;2023-05-07T01:34:09;18.30;;;10.88;;
79330;SDS011;68797;49.782;19.054;2023-05-07T01:36:38;17.55;;;9.48;;
79330;SDS011;68797;49.782;19.054;2023-05-07T01:39:06;15.52;;;8.77;;
79330;SDS011;68797;49.782;19.054;2023-05-07T01:41:35;13.90;;;9.57;;
79330;SDS011;68797;49.782;19.054;2023-05-07T01:44:01;18.60;;;8.55;;
79330;SDS011;68797;49.782;19.054;2023-05-07T01:46:29;14.23;;;8.77;;
79330;SDS011;68797;49.782;19.054;2023-05-07T01:48:57;13.82;;;8.65;;
79330;SDS011;68797;49.782;19.054;2023-05-07T01:51:23;19.33;;;9.50;;
79330;SDS011;68797;49.782;19.054;2023-05-07T01:53:51;17.80;;;9.40;;
79330;SDS011;68797;49.782;19.054;2023-05-07T01:56:19;19.08;;;10.68;;
79330;SDS011;68797;49.782;19.054;2023-05-07T01:58:47;20.80;;;12.48;;
79330;SDS011;68797;49.782;19.054;2023-05-07T02:01:13;18.55;;;10.90;;
79330;SDS011;68797;49.782;19.054;2023-05-07T02:03:40;19.15;;;12.25;;
79330;SDS011;68797;49.782;19.054;2023-05-07T02:06:13;16.83;;;10.93;;
79330;SDS011;68797;49.782;19.054;2023-05-07T02:08:40;20.95;;;11.75;;
79330;SDS011;68797;49.782;19.054;2023-05-07T02:11:06;18.25;;;11.30;;
79330;SDS011;68797;49.782;19.054;2023-05-07T02:13:34;19.15;;;11.15;;
79330;SDS011;68797;49.782;19.054;2023-05-07T02:16:00;15.95;;;10.07;;
79330;SDS011;68797;49.782;19.054;2023-05-07T02:18:27;16.85;;;9.48;;
79330;SDS011;68797;49.782;19.054;2023-05-07T02:20:54;16.98;;;10.40;;
79330;SDS011;68797;49.782;19.054;2023-05-07T02:23:20;20.23;;;11.13;;
79330;SDS011;68797;49.782;19.054;2023-05-07T02:25:46;16.10;;;10.00;;
79330;SDS011;68797;49.782;19.054;2023-05-07T02:28:13;17.23;;;9.57;;
79330;SDS011;68797;49.782;19.054;2023-05-07T02:30:45;16.85;;;10.05;;
79330;SDS011;68797;49.782;19.054;2023-05-07T02:33:11;15.73;;;9.38;;
79330;SDS011;68797;49.782;19.054;2023-05-07T02:35:39;15.55;;;9.35;;
79330;SDS011;68797;49.782;19.054;2023-05-07T02:38:06;17.88;;;9.70;;
79330;SDS011;68797;49.782;19.054;2023-05-07T02:40:34;18.15;;;10.25;;
79330;SDS011;68797;49.782;19.054;2023-05-07T02:43:04;16.33;;;10.48;;
79330;SDS011;68797;49.782;19.054;2023-05-07T02:45:31;20.48;;;10.55;;
79330;SDS011;68797;49.782;19.054;2023-05-07T02:47:59;17.08;;;9.90;;
79330;SDS011;68797;49.782;19.054;2023-05-07T02:50:26;18.58;;;10.13;;
79330;SDS011;68797;49.782;19.054;2023-05-07T02:52:54;17.65;;;9.98;;
79330;SDS011;68797;49.782;19.054;2023-05-07T02:55:21;16.83;;;10.60;;
79330;SDS011;68797;49.782;19.054;2023-05-07T02:57:47;17.95;;;9.98;;
79330;SDS011;68797;49.782;19.054;2023-05-07T03:00:14;18.20;;;10.05;;
79330;SDS011;68797;49.782;19.054;2023-05-07T03:02:51;18.88;;;10.70;;
79330;SDS011;68797;49.782;19.054;2023-05-07T03:05:18;19.23;;;11.48;;
79330;SDS011;68797;49.782;19.054;2023-05-07T03:07:44;20.35;;;10.95;;
79330;SDS011;68797;49.782;19.054;2023-05-07T03:10:12;18.88;;;10.45;;
79330;SDS011;68797;49.782;19.054;2023-05-07T03:12:38;18.88;;;10.55;;
79330;SDS011;68797;49.782;19.054;2023-05-07T03:15:05;19.15;;;10.77;;
79330;SDS011;68797;49.782;19.054;2023-05-07T03:17:32;19.50;;;10.57;;
79330;SDS011;68797;49.782;19.054;2023-05-07T03:19:58;20.88;;;11.00;;
79330;SDS011;68797;49.782;19.054;2023-05-07T03:22:25;20.55;;;12.25;;
79330;SDS011;68797;49.782;19.054;2023-05-07T03:24:51;18.02;;;11.95;;
79330;SDS011;68797;49.782;19.054;2023-05-07T03:27:17;20.75;;;10.90;;
79330;SDS011;68797;49.782;19.054;2023-05-07T03:29:44;18.20;;;11.13;;
79330;SDS011;68797;49.782;19.054;2023-05-07T03:32:10;20.02;;;11.48;;
79330;SDS011;68797;49.782;19.054;2023-05-07T03:34:37;16.88;;;10.48;;
79330;SDS011;68797;49.782;19.054;2023-05-07T03:37:03;19.73;;;11.73;;
79330;SDS011;68797;49.782;19.054;2023-05-07T03:39:29;19.48;;;10.98;;
79330;SDS011;68797;49.782;19.054;2023-05-07T03:41:56;17.25;;;10.50;;
79330;SDS011;68797;49.782;19.054;2023-05-07T03:44:23;17.30;;;10.27;;
79330;SDS011;68797;49.782;19.054;2023-05-07T03:46:51;17.73;;;10.40;;
79330;SDS011;68797;49.782;19.054;2023-05-07T03:49:17;19.00;;;11.80;;
79330;SDS011;68797;49.782;19.054;2023-05-07T03:51:43;16.52;;;11.23;;
79330;SDS011;68797;49.782;19.054;2023-05-07T03:54:10;21.98;;;12.05;;
79330;SDS011;68797;49.782;19.054;2023-05-07T03:56:42;61.85;;;33.13;;
79330;SDS011;68797;49.782;19.054;2023-05-07T03:59:08;387.00;;;173.23;;
79330;SDS011;68797;49.782;19.054;2023-05-07T04:01:34;149.07;;;72.78;;
79330;SDS011;68797;49.782;19.054;2023-05-07T04:04:01;153.82;;;76.35;;
79330;SDS011;68797;49.782;19.054;2023-05-07T04:06:28;36.88;;;21.05;;
79330;SDS011;68797;49.782;19.054;2023-05-07T04:08:54;24.25;;;14.48;;
79330;SDS011;68797;49.782;19.054;2023-05-07T04:11:20;46.22;;;27.92;;
79330;SDS011;68797;49.782;19.054;2023-05-07T04:13:47;48.05;;;26.10;;
79330;SDS011;68797;49.782;19.054;2023-05-07T04:16:14;32.80;;;16.95;;
79330;SDS011;68797;49.782;19.054;2023-05-07T04:18:40;39.55;;;21.20;;
79330;SDS011;68797;49.782;19.054;2023-05-07T04:21:14;39.47;;;21.00;;
79330;SDS011;68797;49.782;19.054;2023-05-07T04:23:41;24.00;;;13.45;;
79330;SDS011;68797;49.782;19.054;2023-05-07T04:26:10;22.67;;;13.25;;
79330;SDS011;68797;49.782;19.054;2023-05-07T04:28:40;24.05;;;11.98;;
79330;SDS011;68797;49.782;19.054;2023-05-07T04:31:07;26.33;;;15.43;;
79330;SDS011;68797;49.782;19.054;2023-05-07T04:33:35;19.00;;;12.77;;
79330;SDS011;68797;49.782;19.054;2023-05-07T04:36:02;23.05;;;13.52;;
79330;SDS011;68797;49.782;19.054;2023-05-07T04:38:30;19.27;;;10.77;;
79330;SDS011;68797;49.782;19.054;2023-05-07T04:41:02;21.00;;;10.57;;
79330;SDS011;68797;49.782;19.054;2023-05-07T04:43:34;14.90;;;9.63;;
79330;SDS011;68797;49.782;19.054;2023-05-07T04:46:00;20.20;;;11.20;;
79330;SDS011;68797;49.782;19.054;2023-05-07T04:48:27;17.55;;;11.35;;
79330;SDS011;68797;49.782;19.054;2023-05-07T04:50:54;21.17;;;10.88;;
79330;SDS011;68797;49.782;19.054;2023-05-07T04:53:21;15.95;;;9.70;;
79330;SDS011;68797;49.782;19.054;2023-05-07T04:55:54;19.55;;;10.93;;
79330;SDS011;68797;49.782;19.054;2023-05-07T04:58:23;18.77;;;11.18;;
79330;SDS011;68797;49.782;19.054;2023-05-07T05:00:49;16.10;;;9.23;;
79330;SDS011;68797;49.782;19.054;2023-05-07T05:03:16;15.10;;;9.65;;
79330;SDS011;68797;49.782;19.054;2023-05-07T05:05:43;17.08;;;10.10;;
79330;SDS011;68797;49.782;19.054;2023-05-07T05:08:09;16.90;;;10.70;;
79330;SDS011;68797;49.782;19.054;2023-05-07T05:10:38;18.08;;;9.65;;
79330;SDS011;68797;49.782;19.054;2023-05-07T05:15:31;15.85;;;9.23;;
79330;SDS011;68797;49.782;19.054;2023-05-07T05:17:58;17.17;;;11.13;;
79330;SDS011;68797;49.782;19.054;2023-05-07T05:20:24;19.60;;;11.43;;
79330;SDS011;68797;49.782;19.054;2023-05-07T05:22:50;20.48;;;14.63;;
79330;SDS011;68797;49.782;19.054;2023-05-07T05:25:17;19.25;;;10.23;;
79330;SDS011;68797;49.782;19.054;2023-05-07T05:27:43;14.27;;;9.25;;
79330;SDS011;68797;49.782;19.054;2023-05-07T05:30:10;15.52;;;9.75;;
79330;SDS011;68797;49.782;19.054;2023-05-07T05:32:37;26.05;;;18.63;;
79330;SDS011;68797;49.782;19.054;2023-05-07T05:35:05;15.25;;;9.48;;
79330;SDS011;68797;49.782;19.054;2023-05-07T05:37:31;19.83;;;12.77;;
79330;SDS011;68797;49.782;19.054;2023-05-07T05:40:00;15.82;;;8.68;;
79330;SDS011;68797;49.782;19.054;2023-05-07T05:42:28;17.33;;;10.23;;
79330;SDS011;68797;49.782;19.054;2023-05-07T05:44:55;13.98;;;9.73;;
79330;SDS011;68797;49.782;19.054;2023-05-07T05:47:21;85.13;;;39.95;;
79330;SDS011;68797;49.782;19.054;2023-05-07T05:49:49;39.20;;;17.25;;
79330;SDS011;68797;49.782;19.054;2023-05-07T05:52:15;286.23;;;87.63;;
79330;SDS011;68797;49.782;19.054;2023-05-07T05:54:43;211.55;;;66.97;;
79330;SDS011;68797;49.782;19.054;2023-05-07T05:57:09;270.30;;;84.38;;
79330;SDS011;68797;49.782;19.054;2023-05-07T05:59:36;118.13;;;49.63;;
79330;SDS011;68797;49.782;19.054;2023-05-07T06:02:02;91.40;;;39.08;;
79330;SDS011;68797;49.782;19.054;2023-05-07T06:04:29;24.40;;;12.80;;
79330;SDS011;68797;49.782;19.054;2023-05-07T06:06:55;22.00;;;13.25;;
79330;SDS011;68797;49.782;19.054;2023-05-07T06:09:24;19.38;;;9.98;;
79330;SDS011;68797;49.782;19.054;2023-05-07T06:11:50;16.50;;;10.07;;
79330;SDS011;68797;49.782;19.054;2023-05-07T06:14:17;18.90;;;10.75;;
79330;SDS011;68797;49.782;19.054;2023-05-07T06:16:43;16.23;;;10.35;;
79330;SDS011;68797;49.782;19.054;2023-05-07T06:19:10;19.20;;;10.77;;
79330;SDS011;68797;49.782;19.054;2023-05-07T06:21:38;15.30;;;9.48;;
79330;SDS011;68797;49.782;19.054;2023-05-07T06:24:06;15.90;;;9.43;;
79330;SDS011;68797;49.782;19.054;2023-05-07T06:26:33;15.60;;;10.10;;
79330;SDS011;68797;49.782;19.054;2023-05-07T06:29:13;15.45;;;9.20;;
79330;SDS011;68797;49.782;19.054;2023-05-07T06:31:41;15.48;;;8.85;;
79330;SDS011;68797;49.782;19.054;2023-05-07T06:34:09;14.30;;;8.10;;
79330;SDS011;68797;49.782;19.054;2023-05-07T06:36:37;31.83;;;18.67;;
79330;SDS011;68797;49.782;19.054;2023-05-07T06:39:13;38.47;;;20.08;;
79330;SDS011;68797;49.782;19.054;2023-05-07T06:41:39;37.08;;;18.83;;
79330;SDS011;68797;49.782;19.054;2023-05-07T06:44:09;31.00;;;16.55;;
79330;SDS011;68797;49.782;19.054;2023-05-07T06:46:40;24.75;;;13.23;;
79330;SDS011;68797;49.782;19.054;2023-05-07T06:49:07;22.20;;;12.63;;
79330;SDS011;68797;49.782;19.054;2023-05-07T06:51:33;21.85;;;11.32;;
79330;SDS011;68797;49.782;19.054;2023-05-07T06:54:02;18.67;;;11.40;;
79330;SDS011;68797;49.782;19.054;2023-05-07T06:56:31;23.67;;;12.68;;
79330;SDS011;68797;49.782;19.054;2023-05-07T06:59:06;24.00;;;13.57;;
79330;SDS011;68797;49.782;19.054;2023-05-07T07:01:36;33.75;;;19.30;;
79330;SDS011;68797;49.782;19.054;2023-05-07T07:04:04;28.27;;;15.73;;
79330;SDS011;68797;49.782;19.054;2023-05-07T07:06:31;26.70;;;14.85;;
79330;SDS011;68797;49.782;19.054;2023-05-07T07:08:59;26.85;;;13.05;;
79330;SDS011;68797;49.782;19.054;2023-05-07T07:11:26;23.85;;;12.88;;
79330;SDS011;68797;49.782;19.054;2023-05-07T07:13:53;21.10;;;10.23;;
79330;SDS011;68797;49.782;19.054;2023-05-07T07:16:21;16.83;;;10.50;;
79330;SDS011;68797;49.782;19.054;2023-05-07T07:18:48;17.30;;;9.95;;
79330;SDS011;68797;49.782;19.054;2023-05-07T07:21:14;22.02;;;12.13;;
79330;SDS011;68797;49.782;19.054;2023-05-07T07:23:41;17.90;;;10.38;;
79330;SDS011;68797;49.782;19.054;2023-05-07T07:26:07;17.88;;;10.07;;
79330;SDS011;68797;49.782;19.054;2023-05-07T07:28:34;28.25;;;14.02;;
79330;SDS011;68797;49.782;19.054;2023-05-07T07:31:01;22.63;;;12.05;;
79330;SDS011;68797;49.782;19.054;2023-05-07T07:35:55;18.88;;;10.70;;
79330;SDS011;68797;49.782;19.054;2023-05-07T07:38:22;20.63;;;10.70;;
79330;SDS011;68797;49.782;19.054;2023-05-07T07:40:48;18.70;;;10.45;;
79330;SDS011;68797;49.782;19.054;2023-05-07T07:43:14;18.38;;;10.85;;
79330;SDS011;68797;49.782;19.054;2023-05-07T07:48:08;19.60;;;10.70;;
79330;SDS011;68797;49.782;19.054;2023-05-07T07:50:37;23.00;;;12.27;;
79330;SDS011;68797;49.782;19.054;2023-05-07T07:53:04;22.80;;;11.30;;
79330;SDS011;68797;49.782;19.054;2023-05-07T07:55:30;19.08;;;11.98;;
79330;SDS011;68797;49.782;19.054;2023-05-07T07:57:59;20.23;;;11.25;;
79330;SDS011;68797;49.782;19.054;2023-05-07T08:00:25;29.08;;;15.38;;
79330;SDS011;68797;49.782;19.054;2023-05-07T08:02:55;27.75;;;13.48;;
79330;SDS011;68797;49.782;19.054;2023-05-07T08:05:26;32.80;;;15.15;;
79330;SDS011;68797;49.782;19.054;2023-05-07T08:07:53;32.83;;;14.98;;
79330;SDS011;68797;49.782;19.054;2023-05-07T08:10:24;34.63;;;17.15;;
79330;SDS011;68797;49.782;19.054;2023-05-07T08:12:57;42.28;;;18.50;;
79330;SDS011;68797;49.782;19.054;2023-05-07T08:15:24;41.83;;;19.38;;
79330;SDS011;68797;49.782;19.054;2023-05-07T08:17:50;41.78;;;19.60;;
79330;SDS011;68797;49.782;19.054;2023-05-07T08:20:17;46.40;;;21.35;;
79330;SDS011;68797;49.782;19.054;2023-05-07T08:22:44;45.35;;;19.25;;
79330;SDS011;68797;49.782;19.054;2023-05-07T08:25:10;46.58;;;20.75;;
79330;SDS011;68797;49.782;19.054;2023-05-07T08:27:37;44.47;;;19.23;;
79330;SDS011;68797;49.782;19.054;2023-05-07T08:30:04;39.35;;;17.38;;
79330;SDS011;68797;49.782;19.054;2023-05-07T08:32:31;34.67;;;16.70;;
79330;SDS011;68797;49.782;19.054;2023-05-07T08:34:57;29.48;;;14.00;;
79330;SDS011;68797;49.782;19.054;2023-05-07T08:37:23;37.45;;;17.55;;
79330;SDS011;68797;49.782;19.054;2023-05-07T08:39:50;32.35;;;16.95;;
79330;SDS011;68797;49.782;19.054;2023-05-07T08:42:20;32.30;;;14.63;;
79330;SDS011;68797;49.782;19.054;2023-05-07T08:44:49;39.67;;;18.10;;
79330;SDS011;68797;49.782;19.054;2023-05-07T08:47:20;72.78;;;30.13;;
79330;SDS011;68797;49.782;19.054;2023-05-07T08:49:53;57.20;;;23.83;;
79330;SDS011;68797;49.782;19.054;2023-05-07T08:52:22;32.92;;;13.90;;
79330;SDS011;68797;49.782;19.054;2023-05-07T08:54:49;25.35;;;12.90;;
79330;SDS011;68797;49.782;19.054;2023-05-07T08:57:16;24.75;;;12.48;;
79330;SDS011;68797;49.782;19.054;2023-05-07T08:59:42;24.95;;;12.13;;
79330;SDS011;68797;49.782;19.054;2023-05-07T09:02:09;27.95;;;14.95;;
79330;SDS011;68797;49.782;19.054;2023-05-07T09:04:37;23.73;;;11.10;;
79330;SDS011;68797;49.782;19.054;2023-05-07T09:07:04;20.45;;;9.85;;
79330;SDS011;68797;49.782;19.054;2023-05-07T09:09:33;20.85;;;10.40;;
79330;SDS011;68797;49.782;19.054;2023-05-07T09:12:01;22.95;;;11.73;;
79330;SDS011;68797;49.782;19.054;2023-05-07T09:14:32;18.38;;;10.95;;
79330;SDS011;68797;49.782;19.054;2023-05-07T09:16:59;21.25;;;11.82;;
79330;SDS011;68797;49.782;19.054;2023-05-07T09:19:26;19.02;;;9.55;;
79330;SDS011;68797;49.782;19.054;2023-05-07T09:21:58;20.08;;;10.05;;
79330;SDS011;68797;49.782;19.054;2023-05-07T09:24:26;14.73;;;8.20;;
79330;SDS011;68797;49.782;19.054;2023-05-07T09:26:54;20.90;;;8.95;;
79330;SDS011;68797;49.782;19.054;2023-05-07T09:29:23;17.23;;;9.55;;
79330;SDS011;68797;49.782;19.054;2023-05-07T09:34:17;18.88;;;8.85;;
79330;SDS011;68797;49.782;19.054;2023-05-07T09:36:45;17.90;;;9.27;;
79330;SDS011;68797;49.782;19.054;2023-05-07T09:39:11;21.05;;;10.50;;
79330;SDS011;68797;49.782;19.054;2023-05-07T09:41:45;22.60;;;10.68;;
79330;SDS011;68797;49.782;19.054;2023-05-07T09:44:18;16.42;;;8.00;;
79330;SDS011;68797;49.782;19.054;2023-05-07T09:46:51;14.30;;;7.57;;
79330;SDS011;68797;49.782;19.054;2023-05-07T09:49:24;16.70;;;8.60;;
79330;SDS011;68797;49.782;19.054;2023-05-07T09:52:01;16.90;;;8.45;;
79330;SDS011;68797;49.782;19.054;2023-05-07T09:54:35;12.52;;;7.50;;
79330;SDS011;68797;49.782;19.054;2023-05-07T09:57:04;16.05;;;9.02;;
79330;SDS011;68797;49.782;19.054;2023-05-07T09:59:33;20.13;;;10.63;;
79330;SDS011;68797;49.782;19.054;2023-05-07T10:02:05;22.92;;;10.13;;
79330;SDS011;68797;49.782;19.054;2023-05-07T10:04:37;24.02;;;11.38;;
79330;SDS011;68797;49.782;19.054;2023-05-07T10:07:05;26.08;;;13.60;;
79330;SDS011;68797;49.782;19.054;2023-05-07T10:09:34;27.98;;;15.25;;
79330;SDS011;68797;49.782;19.054;2023-05-07T10:12:05;25.30;;;15.30;;
79330;SDS011;68797;49.782;19.054;2023-05-07T10:14:33;17.92;;;11.13;;
79330;SDS011;68797;49.782;19.054;2023-05-07T10:17:00;20.70;;;11.88;;
79330;SDS011;68797;49.782;19.054;2023-05-07T10:19:27;19.83;;;11.55;;
79330;SDS011;68797;49.782;19.054;2023-05-07T10:21:59;19.92;;;10.77;;
79330;SDS011;68797;49.782;19.054;2023-05-07T10:24:33;23.08;;;12.48;;
79330;SDS011;68797;49.782;19.054;2023-05-07T10:27:04;21.20;;;11.15;;
79330;SDS011;68797;49.782;19.054;2023-05-07T10:29:42;19.88;;;11.00;;
79330;SDS011;68797;49.782;19.054;2023-05-07T10:35:03;25.98;;;11.93;;
79330;SDS011;68797;49.782;19.054;2023-05-07T10:37:36;17.50;;;9.57;;
79330;SDS011;68797;49.782;19.054;2023-05-07T10:40:02;15.45;;;8.63;;
79330;SDS011;68797;49.782;19.054;2023-05-07T10:42:31;17.67;;;10.68;;
79330;SDS011;68797;49.782;19.054;2023-05-07T10:44:58;16.25;;;9.20;;
79330;SDS011;68797;49.782;19.054;2023-05-07T10:50:31;18.33;;;10.73;;
79330;SDS011;68797;49.782;19.054;2023-05-07T10:56:29;18.92;;;10.50;;
79330;SDS011;68797;49.782;19.054;2023-05-07T10:58:51;15.07;;;9.35;;
79330;SDS011;68797;49.782;19.054;2023-05-07T11:01:48;20.25;;;11.57;;
79330;SDS011;68797;49.782;19.054;2023-05-07T11:04:25;18.33;;;10.23;;
79330;SDS011;68797;49.782;19.054;2023-05-07T11:07:35;20.67;;;11.13;;
79330;SDS011;68797;49.782;19.054;2023-05-07T11:10:07;19.55;;;10.13;;
79330;SDS011;68797;49.782;19.054;2023-05-07T11:12:51;19.60;;;10.90;;
79330;SDS011;68797;49.782;19.054;2023-05-07T11:15:57;13.57;;;8.15;;
79330;SDS011;68797;49.782;19.054;2023-05-07T11:18:50;30.13;;;15.00;;
79330;SDS011;68797;49.782;19.054;2023-05-07T11:21:36;20.50;;;11.60;;
79330;SDS011;68797;49.782;19.054;2023-05-07T11:24:09;15.65;;;9.77;;
79330;SDS011;68797;49.782;19.054;2023-05-07T11:26:49;17.67;;;13.32;;
79330;SDS011;68797;49.782;19.054;2023-05-07T11:31:48;19.23;;;11.27;;
79330;SDS011;68797;49.782;19.054;2023-05-07T11:34:23;19.58;;;12.82;;
79330;SDS011;68797;49.782;19.054;2023-05-07T11:36:54;20.52;;;12.50;;
79330;SDS011;68797;49.782;19.054;2023-05-07T11:39:32;20.98;;;13.15;;
79330;SDS011;68797;49.782;19.054;2023-05-07T11:44:43;15.68;;;9.95;;
79330;SDS011;68797;49.782;19.054;2023-05-07T11:47:16;18.35;;;10.70;;
79330;SDS011;68797;49.782;19.054;2023-05-07T11:49:43;15.02;;;8.75;;
79330;SDS011;68797;49.782;19.054;2023-05-07T11:52:12;14.82;;;8.75;;
79330;SDS011;68797;49.782;19.054;2023-05-07T11:54:39;15.60;;;10.27;;
79330;SDS011;68797;49.782;19.054;2023-05-07T11:57:05;22.73;;;12.38;;
79330;SDS011;68797;49.782;19.054;2023-05-07T12:02:06;15.57;;;8.27;;
79330;SDS011;68797;49.782;19.054;2023-05-07T12:04:33;19.20;;;10.75;;
79330;SDS011;68797;49.782;19.054;2023-05-07T12:06:59;15.27;;;10.35;;
79330;SDS011;68797;49.782;19.054;2023-05-07T12:09:26;14.57;;;9.60;;
79330;SDS011;68797;49.782;19.054;2023-05-07T12:11:53;19.60;;;10.65;;
79330;SDS011;68797;49.782;19.054;2023-05-07T12:14:19;17.88;;;10.70;;
79330;SDS011;68797;49.782;19.054;2023-05-07T12:16:46;13.70;;;9.40;;
79330;SDS011;68797;49.782;19.054;2023-05-07T12:19:12;16.00;;;8.88;;
79330;SDS011;68797;49.782;19.054;2023-05-07T12:21:38;23.35;;;11.10;;
79330;SDS011;68797;49.782;19.054;2023-05-07T12:24:05;19.50;;;11.88;;
79330;SDS011;68797;49.782;19.054;2023-05-07T12:26:31;16.63;;;10.18;;
79330;SDS011;68797;49.782;19.054;2023-05-07T12:28:57;20.10;;;10.75;;
79330;SDS011;68797;49.782;19.054;2023-05-07T12:31:27;16.05;;;8.32;;
79330;SDS011;68797;49.782;19.054;2023-05-07T12:33:53;19.58;;;10.30;;
79330;SDS011;68797;49.782;19.054;2023-05-07T12:36:20;20.70;;;10.45;;
79330;SDS011;68797;49.782;19.054;2023-05-07T12:38:46;22.60;;;11.35;;
79330;SDS011;68797;49.782;19.054;2023-05-07T12:41:15;17.40;;;10.32;;
79330;SDS011;68797;49.782;19.054;2023-05-07T12:43:45;20.63;;;10.23;;
79330;SDS011;68797;49.782;19.054;2023-05-07T12:46:12;20.42;;;11.05;;
79330;SDS011;68797;49.782;19.054;2023-05-07T12:48:45;25.30;;;13.13;;
79330;SDS011;68797;49.782;19.054;2023-05-07T12:51:12;25.00;;;13.25;;
79330;SDS011;68797;49.782;19.054;2023-05-07T12:53:39;18.00;;;11.57;;
79330;SDS011;68797;49.782;19.054;2023-05-07T12:56:08;16.80;;;8.95;;
79330;SDS011;68797;49.782;19.054;2023-05-07T12:58:34;22.10;;;13.85;;
79330;SDS011;68797;49.782;19.054;2023-05-07T13:01:05;27.95;;;15.98;;
79330;SDS011;68797;49.782;19.054;2023-05-07T13:03:36;19.73;;;12.40;;
79330;SDS011;68797;49.782;19.054;2023-05-07T13:06:07;24.88;;;13.90;;
79330;SDS011;68797;49.782;19.054;2023-05-07T13:08:39;17.95;;;10.40;;
79330;SDS011;68797;49.782;19.054;2023-05-07T13:11:09;18.20;;;11.52;;
79330;SDS011;68797;49.782;19.054;2023-05-07T13:13:36;16.45;;;9.02;;
79330;SDS011;68797;49.782;19.054;2023-05-07T13:16:04;19.33;;;10.55;;
79330;SDS011;68797;49.782;19.054;2023-05-07T13:20:59;19.52;;;11.07;;
79330;SDS011;68797;49.782;19.054;2023-05-07T13:23:26;19.00;;;10.73;;
79330;SDS011;68797;49.782;19.054;2023-05-07T13:25:53;20.35;;;11.25;;
79330;SDS011;68797;49.782;19.054;2023-05-07T13:28:21;28.50;;;14.05;;
79330;SDS011;68797;49.782;19.054;2023-05-07T13:30:48;21.40;;;11.63;;
79330;SDS011;68797;49.782;19.054;2023-05-07T13:33:14;28.42;;;16.60;;
79330;SDS011;68797;49.782;19.054;2023-05-07T13:35:41;26.60;;;14.25;;
79330;SDS011;68797;49.782;19.054;2023-05-07T13:38:07;26.20;;;14.98;;
79330;SDS011;68797;49.782;19.054;2023-05-07T13:40:34;20.25;;;12.27;;
79330;SDS011;68797;49.782;19.054;2023-05-07T13:43:00;26.45;;;13.25;;
79330;SDS011;68797;49.782;19.054;2023-05-07T13:45:28;23.75;;;11.90;;
79330;SDS011;68797;49.782;19.054;2023-05-07T13:47:55;22.88;;;13.43;;
79330;SDS011;68797;49.782;19.054;2023-05-07T13:50:22;17.45;;;10.70;;
79330;SDS011;68797;49.782;19.054;2023-05-07T13:52:49;21.05;;;11.32;;
79330;SDS011;68797;49.782;19.054;2023-05-07T13:55:18;21.67;;;11.85;;
79330;SDS011;68797;49.782;19.054;2023-05-07T13:57:45;20.20;;;11.50;;
79330;SDS011;68797;49.782;19.054;2023-05-07T14:02:41;15.98;;;9.93;;
79330;SDS011;68797;49.782;19.054;2023-05-07T14:05:08;23.35;;;11.65;;
79330;SDS011;68797;49.782;19.054;2023-05-07T14:07:35;21.85;;;12.27;;
79330;SDS011;68797;49.782;19.054;2023-05-07T14:10:02;25.40;;;13.07;;
79330;SDS011;68797;49.782;19.054;2023-05-07T14:12:29;38.75;;;17.92;;
79330;SDS011;68797;49.782;19.054;2023-05-07T14:14:56;51.67;;;25.00;;
79330;SDS011;68797;49.782;19.054;2023-05-07T14:17:22;38.38;;;20.55;;
79330;SDS011;68797;49.782;19.054;2023-05-07T14:19:51;14.63;;;9.07;;
79330;SDS011;68797;49.782;19.054;2023-05-07T14:22:19;14.13;;;9.00;;
79330;SDS011;68797;49.782;19.054;2023-05-07T14:24:46;17.13;;;9.80;;
79330;SDS011;68797;49.782;19.054;2023-05-07T14:27:12;16.20;;;8.50;;
79330;SDS011;68797;49.782;19.054;2023-05-07T14:29:38;18.63;;;10.38;;
79330;SDS011;68797;49.782;19.054;2023-05-07T14:32:05;15.85;;;9.57;;
79330;SDS011;68797;49.782;19.054;2023-05-07T14:34:31;14.55;;;8.15;;
79330;SDS011;68797;49.782;19.054;2023-05-07T14:36:58;13.10;;;7.85;;
79330;SDS011;68797;49.782;19.054;2023-05-07T14:39:25;14.32;;;9.15;;
79330;SDS011;68797;49.782;19.054;2023-05-07T14:41:51;13.02;;;7.53;;
79330;SDS011;68797;49.782;19.054;2023-05-07T14:44:20;14.65;;;7.40;;
79330;SDS011;68797;49.782;19.054;2023-05-07T14:46:46;12.13;;;7.00;;
79330;SDS011;68797;49.782;19.054;2023-05-07T14:49:14;13.82;;;8.70;;